Timeline UpdatesTrip UpdatesNews PostsPvt PostsTravel TipsAdmin PostsConv PostsFollowed PostsChat RequestsBlog PostsPNR Posts

Disclaimer
Search
 
 
Thu Apr 24, 2014 13:56:50 ISTHomeTrainsΣChainsAtlasPNRForumGalleryNewsFAQTripsMembersLoginFeedback
No Recent News for this Train
Other Trains in the News **new
Latest...
T.No. 57257 Tirupati – Kakinada Passenger scheduled to leave Tirupati at 01.05 hrs o­n 29/04/2013 is cancelled.
Mon Apr 29, 2013 (01:23PM)
⇐ Return Journey: Train# 57258

57257/Tirupati Kakinada Port Passenger

Nov 29 2013 (11:41PM)
Change Departure Station:
Change Arrival Station:
Post a Train Travel TipPost a Train Travel Tip **new
Post a Comment/Question/Picture/VideoPost a Comment/Question/Picture/Video
Pantry/Catering
✕ NO Pantry Car
✕ NO Catering
RSA - Rake Sharing
57273/74, TPTY-UBL Intercity Passenger
Rake/Coach Composition
LOCO- SLR-GEN-GEN-GEN-GEN-GEN-GEN-GEN-GEN-S2-S1-GEN-GEN-GEN-GEN-SLR
Loco
WDM2/WDM 3A/WDG 3A :TPTY_BZA WAM-4/WAG-5/WAG-7 : BZA_COA
News    PNR    Forum    Time-Table    Availability    Fare Chart    Map    Arr/Dep History    Trips    Gallery    ΣChains    X/O    Timeline    
Travel Time: 16h 22m    79 halts    Distance: 485 km    Avg Speed: 29 km/hr
Type: Passenger
Zone: SCR/South Central
Departs @ 04:23 (Avg 31m late)
Platform# 1
SMTWTFS
Venkatachalam/VKT 
Arrives @ 20:45 (Avg 43m late)
Platform# ???
SMTWTFS
Kakinada Port/COA 

79 halts. 86 intermediate Stations between Venkatachalam and Kakinada Port

Show ALL intermediate Stations  Show Old Time-Table

#CodeStation NameX/OArrivesAvgDepartsAvgHaltPFDay#KmSpeedElevZoneAddress
1TPTYTirupati Main (5)  -01:05+651-115.240150mSCRChittoor Distt, Andhra Pradesh
2RURenigunta Junction (5)X  01:20+1101:22+192m21-105.349113mSCRChittoor District, Andhra Pradesh
3YPDYerpedu (2)  01:34+1901:35+191m--1-95.46780mSCRChittoor, Andhra Pradesh
4KHTSri Kalahasti (2)  01:47+1901:48+211m21-82.15668mSCRChittoor District, Andhra Pradesh
5YLKYellakaru (1)  02:01+2102:02+211m11-70.05073mSCRCoastal Andhra Region, Andhra Pradesh
6YALYataluru  02:09-02:10-1m--1-64.19678mSCRCoastal Andhra Region, Andhra Pradesh
7VKIVenkatagiri (3)  02:14+2002:15+201m11-57.78077mSCRNellore District, Andhra Pradesh
8NDZNidigallu (2)X  02:21+2302:22+231m--1-49.712955mSCRSiddavaram, Andhra Pradesh
9VDDVendodu (2)  02:26+2602:28+252m--1-41.15755mSCRNellore, Andhra Pradesh
10KQAKondagunta (1)X  02:38+2702:40+282m11-31.7953mSCRNellore, Andhra Pradesh
11GDRGudur Junction (3)X  03:45+2904:00+2315m31-21.96019mSCRGudur, Andhra Pradesh
12VKT»Venkatachalam (3)»X  04:22+2904:23+311m110.07026mSCRVenkatachelam, Andhra Pradesh
13VDEVedayapalem (2)X  04:31+3304:33+322m119.35427mSCRNellore, Andhra Pradesh
14NLSNellore South (2)  04:39+3304:40+331m1114.62322mSCRNellore, Andhra Pradesh
15NLRNellore (4)X  04:45+3304:46+351m2116.53421mSCRNellore, Andhra Pradesh
16PGUPadugupadu (3)X  04:53+3604:54+361m1120.65621mSCRKovur, Andhra Pradesh
17KJJKodavaluru (2)X  05:02+3605:03+361m--128.05717mSCRNational Highway 5, Andhra Pradesh
18TMCTalamanchiX  05:08+3805:10+392m--132.86315mSCRNational Highway 5, Andhra Pradesh
19AXRAlluru Road  05:21+3905:22+431m--144.3498mSCRNational Highway 5, Andhra Pradesh
20BTTRBitragunta (2)X  05:30+4505:31+1:201m1150.92515mSCRBitragunta, Andhra Pradesh
21SVPMSri Venkateswarapalem (2)X  05:41+1:2005:42+1:221m--155.06222mSCRNational Highway 5, Andhra Pradesh
22KVZKavali (4)  05:54+1:2305:55+1:251m3167.37121mSCRKavali, Andhra Pradesh
23TTUTettu (2)X  06:07+1:2506:08+1:281m--181.67624mSCRNational Highway 5, Andhra Pradesh
24UPDUlavapadu (2)  06:19+1:2906:20+1:301m--195.45813mSCRUlavapadu, Andhra Pradesh
25SKMSingarayakonda (3)XO  06:30+1:3206:31+1:321m11105.16426mSCRSingarayakonda, Andhra Pradesh
26TNRTanguturu (2)X  06:40+1:3406:41+1:361m--1114.75010mSCRTanguturu, Andhra Pradesh
27SDMSurareddipalem (3)X  06:51+1:3606:52+1:391m--1123.0199mSCRSurareddy Palem, Andhra Pradesh
28OGLOngole (3)  07:24+1:2007:25+1:221m11133.34712mSCROngole ph.no . 08592-280202, Andhra Pradesh
29KRVKaravadi (2)  07:36+1:2107:37+1:221m--1141.94711mSCRKaravadi, Andhra Pradesh
30ANBAmmanabrolu (3)X  07:45+1:2207:46+1:231m--1148.23316mSCRAmmanabrolu, Andhra Pradesh
31RPRLRaparla Halt (2)X  07:52+1:2307:53+1:231m--1151.5659mSCRNH 214A, Andhra Pradesh
32UGDUppugunduru (2)  07:57+1:2307:58+1:271m--1155.8435mSCRUppugundur Machavaram Rd, Andhra Pradesh
33CJMChinnaganjam (3)X  08:07+1:2608:08+1:261m--1162.4479mSCRChinna Ganjam, Andhra Pradesh
34KVDUKadavakuduru (2)  08:14+1:2608:15+1:261m--1167.0518mSCRKadavakuduru, Andhra Pradesh
35KPLLKottapandillapalli (2)X  08:20+1:2608:21+1:261m--1171.3428mSCRNH 214A, Andhra Pradesh
36VTMVetapalem (3)  08:26+1:2608:27+1:281m--1174.8478mSCRVetapalem, Andhra Pradesh
37JAQJandrapeta (2)  08:33+1:2808:34+1:281m--1179.5389mSCRChirala, Andhra Pradesh
38CLXChirala (4)X  08:39+1:2808:40+1:311m--1182.6428mSCRChirala, Andhra Pradesh
39IPPMIpurupalemXO  08:46+1:3108:47+1:311m--1186.9488mSCRIpurupalem, Andhra Pradesh
40SPFStuartpuram  08:52+1:3108:53+1:311m--1190.9599mSCRBapatla West Rural, Andhra Pradesh
41BPPBapatla (3)  09:00+1:3309:01+1:331m--1197.74810mSCRBapatla, Andhra Pradesh
42APLAppikatla (2)X  09:12+1:3309:13+1:371m--1206.5517mSCRGBC Rd, Andhra Pradesh
43MCVMMachavaramX  09:21+1:3809:22+1:381m--1213.3607mSCRMachavaram, Andhra Pradesh
44NDONidubrolu (3)X  09:27+1:3809:28+1:391m--1218.3469mSCRNidubrolu, Andhra Pradesh
45MDKUModukuru (2)X  09:37+1:3809:38+1:381m--1225.24310mSCRModukuru, Andhra Pradesh
46TSRTsunduru (3)X  09:43+1:3909:44+1:391m--1228.82212mSCRTsunduru, Andhra Pradesh
47TELTenali Junction (5)X  10:15+1:2510:20+1:255m41240.39116mSCRTel: 08644-227834, Andhra Pradesh
48KLXKolakalur  10:24+1:2810:25+1:281m--1246.44415mSCRNandivelugu Rd, Andhra Pradesh
49DIGDuggirala (2)  10:30+1:2810:31+1:301m--1250.05016mSCRDuggirala, Andhra Pradesh
50CLVRChiluvur  10:38+1:3110:39+1:311m--1255.84620mSCRChiluvuru, Andhra Pradesh
51PVDPeddavadiapudi (2)XO  10:44+1:3110:45+1:321m--1259.72320mSCRKL University to NH 5, Andhra Pradesh
52KCCKrishna Canal Junction (6)XO  11:04+1:2111:05+1:251m--1266.9521mSCRTadepalli, Andhra Pradesh
53BZAVijayawada Junction (10)X  12:00+5512:30+1:0330m21271.63924mSCRVijayawada 520001, Andhra Pradesh
54MBDMustabadaX  12:50+1:1512:51+1:201m--1284.55220mSCRKrishna, Andhra Pradesh
55GWMGannavaramX  12:59+1:2113:00+1:241m--1291.44024mSCRGannavaram, Andhra Pradesh
56PAVPPedda AvutapaleX  13:07+1:2613:08+1:291m--1296.06025mSCRPedda Avutapalle, Andhra Pradesh
57TOUTelaproluX  13:15+1:3113:16+1:341m--1303.13820mSCRKrishna, Andhra Pradesh
58VRVLViravalli  13:21+1:3513:22+1:351m--1306.25621mSCRViravalli, Andhra Pradesh
59NZDNuzvid (3)X  13:29+1:3513:30+1:421m--1312.75928mSCRHanuman Junction, Andhra Pradesh
60VATVatlur  13:40+1:4313:41+1:481m--1322.56016mSCREluru, Andhra Pradesh
61PRHPowerpet (2)  13:48+1:4913:49+1:491m--1329.52220mSCREluru, Andhra Pradesh
62EEEluru (3)X  13:53+1:4813:54+1:521m--1331.05319mSCREluru Ph.no. 08812 226401., Andhra Pradesh
63DELDenduluru  14:05+1:5314:06+1:561m--1340.72721mSCRWest Godavari, Andhra Pradesh
64STPTSitampetX  14:14+1:5414:15+1:541m--1344.45620mSCREGK Rd, Andhra Pradesh
65BMDBhimadolu (3)  14:21+1:5414:22+2:021m--1350.05014mSCRBhimadolu, Andhra Pradesh
66PUAPulla  14:30+2:0414:31+2:121m--1356.76515mSCRPulla, Andhra Pradesh
67KKRMKaikaramXO  14:35+2:1314:36+2:131m--1361.04119mSCRKaikaram, Andhra Pradesh
68CELChebrol  14:41+2:1314:42+2:181m--1364.43518mSCRWest Godavari District, Andhra Pradesh
69VGTUnguturuX  14:47+2:1914:48+2:191m--1367.46517mSCRUnguturu, Andhra Pradesh
70BPYBadampudiXO  14:53+2:1914:54+2:231m--1372.83620mSCRBadampudi, Andhra Pradesh
71TDDTadepalligudem (3)O  15:04+2:2115:05+2:321m21378.73918mSCRTadepalligudem, Andhra Pradesh
72NBMNavabpalem  15:19+2:2915:20+2:411m--1387.82216mSCRWest Godavari District, Andhra Pradesh
73MRPLMarampalliXO  15:29+1:1515:30+1:151m--1391.1417mSCRMarampalli Rd, Andhra Pradesh
74NDDNidadavolu Junction (3)  17:19+1:1117:20+1:121m--1398.75220mSCRNidadavolu jtn ph.no. 08813-210325, Andhra Pradesh
75BMGMBrahmanagudemO  17:24+1:1517:25+1:151m--1402.25218mSCRNidadavolu, Andhra Pradesh
76CUChagallu  17:30+1:1517:31+1:191m--1406.54218mSCRWest Godavari, Andhra Pradesh
77PSDAPasivedala (2)X  17:36+1:2217:37+1:221m--1410.03722mSCRWest Godavari District, Andhra Pradesh
78KVRKovvur (3)X  17:42+1:1917:43+1:241m--1413.04825mSCRWest Godavari, Andhra Pradesh
79GVNGodavariXO  17:49+1:2617:51+1:262m--1417.9724mSCRRajahmundry, Andhra Pradesh
80RJYRajahmundry (3)X  18:15+1:1218:20+1:155m31420.96723mSCRRajahmundry ph.no. 0883-2420541, Andhra Pradesh
81KYMKadiyam (1)X  18:29+1:1618:32+1:153m11430.96715mSCREast Godavari, Andhra Pradesh
82KSVMKesavaramX  18:37+1:1518:38+1:151m--1436.55116mSCRKesavaram, Andhra Pradesh
83DWPDwarapudi (3)X  18:43+1:1518:44+1:151m--1440.84520mSCREast Godavari District, Andhra Pradesh
84APTAnaparti (3)  18:49+1:1518:50+1:151m--1444.59021mSCREast Godavari District, Andhra Pradesh
85BBPMBalabhadrapuram  18:54+1:1518:55+1:151m--1450.64023mSCRBalabhadhrapuram, Andhra Pradesh
86BVLBikkavoluX  19:00+1:1519:01+1:151m--1453.96816mSCREast Godavari District, Andhra Pradesh
87PBDPeddabrahmadevam  19:06+1:1419:07+1:141m--1459.62916mSCRPedabramadvam, Andhra Pradesh
88MPUMedapadu  19:12+1:1419:13+1:141m--1462.05420mSCRMedapadu, Andhra Pradesh
89GDPTGudaparti  19:18+1:1219:19+1:121m--1466.52021mSCRVetlapalem, Andhra Pradesh
90SLOSamalkot Junction (3)  19:33+1:0919:35+1:082m21471.13718mSCRKakinada ph.no.0884-2328824, Andhra Pradesh
91CCTKakinada Town Junction (3)  19:55+5520:00+555m21483.5211mSCREast Godavari, Andhra Pradesh
92COA•Kakinada Port (3)•  20:45+43---1485.1-5mSCRKakinada, Andhra Pradesh
Scroll to Top
Scroll to Bottom